Milwaukee, Wisconsin
Traffic Map
Current Weather Conditions
Milwaukee, Wisconsin
Clear
Clear
55°
Feels Like: 55°
Wind Chill: 55° Ceiling: Unl
Heat Index: 55° Visibility: 10mi
Dew Point: 38° Wind: 12mph
Humidity: 53% Direction: 240° (WSW)
Pressure: 29.8in Gusts: 0mph
Raw Report DataKMKE 270752Z 24010KT 10SM CLR 13/03 A2980 RMK AO2 SLP092 T01280033
Traffic Incident Summary
Active as of:
Severity:
Category:
InformationThere was an issue retrieving the traffic information for this location. Please try a different location or try again shortly.
Advertisements
Track Severe Weather on mobile